Time;durP1;ratioP1;P1;durP2;ratioP2;P2;SDS_P1;SDS_P2;PMS_P1;PMS_P2;Temp;Humidity;BMP_temperature;BMP_pressure;BME280_temperature;BME280_humidity;BME280_pressure;Samples;Min_cycle;Max_cycle;Signal;HPM_P1;HPM_P2
2022/01/21 00:02:01;;;;;;;9.40;3.53;;;5.60;65.50;;;-142.21;100.00;112049.66;6274422;22;20176;-77
2022/01/21 00:04:28;;;;;;;9.20;4.05;;;5.70;65.50;;;-142.21;100.00;112049.66;6274862;22;20540;-77
2022/01/21 00:06:55;;;;;;;9.27;4.15;;;5.70;65.60;;;-142.21;100.00;112049.66;6274174;22;20738;-77
2022/01/21 00:09:22;;;;;;;8.63;3.58;;;5.80;65.70;;;-142.21;100.00;112049.66;6274467;22;20271;-76
2022/01/21 00:11:51;;;;;;;9.10;4.15;;;5.70;65.40;;;-142.21;100.00;112049.66;6273286;22;20180;-76
2022/01/21 00:14:18;;;;;;;8.02;3.70;;;5.70;65.40;;;-142.21;100.00;112049.66;6274462;22;20176;-76
2022/01/21 00:16:45;;;;;;;7.40;3.75;;;5.60;65.80;;;-142.21;100.00;112049.66;6274936;22;20181;-75
2022/01/21 00:19:15;;;;;;;10.60;4.38;;;5.60;66.10;;;-142.21;100.00;112049.66;6247372;22;20188;-75
2022/01/21 00:30:16;;;;;;;11.15;4.20;;;5.70;67.20;;;-142.21;100.00;112049.66;6274233;22;20184;-76
2022/01/21 00:32:47;;;;;;;8.13;4.90;;;5.70;66.40;;;-142.21;100.00;112049.66;6275887;22;20590;-77
2022/01/21 00:35:17;;;;;;;7.50;4.00;;;5.60;66.20;;;-142.21;100.00;112049.66;6223237;22;20203;-77
2022/01/21 00:37:45;;;;;;;10.43;4.10;;;5.70;66.30;;;-142.21;100.00;112049.66;6276213;22;20243;-77
2022/01/21 00:40:19;;;;;;;5.75;3.65;;;5.80;66.30;;;-142.21;100.00;112049.66;6275983;22;20219;-77
2022/01/21 00:42:55;;;;;;;7.85;3.88;;;5.80;66.20;;;-142.21;100.00;112049.66;6276682;22;20196;-77
2022/01/21 00:45:24;;;;;;;9.38;4.47;;;5.80;66.10;;;-142.21;100.00;112049.66;6275758;22;20207;-76
2022/01/21 00:47:51;;;;;;;8.20;4.18;;;5.90;66.20;;;-142.21;100.00;112049.66;6276622;22;20196;-77
2022/01/21 00:50:19;;;;;;;7.18;3.92;;;5.90;65.90;;;-142.21;100.00;112049.66;6275988;22;20679;-76
2022/01/21 00:52:49;;;;;;;9.68;4.10;;;6.00;65.90;;;-142.21;100.00;112049.66;6276093;22;20176;-77
2022/01/21 00:55:18;;;;;;;5.55;3.90;;;6.00;65.80;;;-142.21;100.00;112049.66;6275201;22;20230;-78
2022/01/21 00:57:47;;;;;;;9.30;4.20;;;6.00;65.80;;;-142.21;100.00;112049.66;6276252;22;20177;-77
2022/01/21 01:00:16;;;;;;;7.10;3.75;;;6.00;65.60;;;-142.21;100.00;112049.66;6276699;22;20601;-76
2022/01/21 01:02:43;;;;;;;9.63;4.20;;;6.00;65.30;;;-142.21;100.00;112049.66;6276223;22;20173;-77
2022/01/21 01:05:13;;;;;;;4.63;3.40;;;5.90;65.30;;;-142.21;100.00;112049.66;6276385;22;20238;-77
2022/01/21 01:07:40;;;;;;;5.03;3.50;;;5.90;65.50;;;-142.21;100.00;112049.66;6275421;22;20172;-77
2022/01/21 01:10:15;;;;;;;7.22;3.35;;;5.90;65.50;;;-142.21;100.00;112049.66;6276187;22;20223;-76
2022/01/21 01:12:55;;;;;;;9.07;3.97;;;5.80;65.70;;;-142.21;100.00;112049.66;6275615;22;20659;-77
2022/01/21 01:20:54;;;;;;;6.85;3.60;;;5.70;65.60;;;-142.21;100.00;112049.66;6276232;22;20203;-76
2022/01/21 01:23:26;;;;;;;9.05;3.65;;;5.70;66.00;;;-142.21;100.00;112049.66;6275848;22;20200;-76
2022/01/21 01:28:40;;;;;;;9.05;3.55;;;5.70;65.50;;;-142.21;100.00;112049.66;6275617;22;20486;-76
2022/01/21 01:31:08;;;;;;;5.40;3.50;;;5.70;65.50;;;-142.21;100.00;112049.66;6276148;22;20196;-76
2022/01/21 01:33:39;;;;;;;8.88;3.67;;;5.70;65.30;;;-142.21;100.00;112049.66;6276333;22;20208;-76
2022/01/21 01:36:08;;;;;;;8.70;3.97;;;5.60;65.40;;;-142.21;100.00;112049.66;6275812;22;20157;-77
2022/01/21 01:41:24;;;;;;;6.07;3.78;;;5.60;65.50;;;-142.21;100.00;112049.66;6276200;22;20553;-77
2022/01/21 01:49:35;;;;;;;8.70;4.10;;;5.50;65.70;;;-142.21;100.00;112049.66;6276137;22;20164;-75
2022/01/21 01:52:06;;;;;;;8.18;3.75;;;5.50;65.80;;;-142.21;100.00;112049.66;6275070;22;20183;-77
2022/01/21 01:54:38;;;;;;;8.32;3.50;;;5.50;66.10;;;-142.21;100.00;112049.66;6275882;22;20214;-77
2022/01/21 01:57:07;;;;;;;7.00;3.45;;;5.60;65.80;;;-142.21;100.00;112049.66;6275262;22;20229;-75
2022/01/21 01:59:36;;;;;;;5.78;3.40;;;5.50;66.40;;;-142.21;100.00;112049.66;6275991;22;20173;-76
2022/01/21 02:02:09;;;;;;;7.60;3.83;;;5.50;65.40;;;-142.21;100.00;112049.66;6275030;22;20255;-75
2022/01/21 02:04:37;;;;;;;6.20;3.38;;;5.50;65.20;;;-142.21;100.00;112049.66;6275959;22;20168;-76
2022/01/21 02:07:05;;;;;;;6.25;3.78;;;5.40;64.80;;;-142.21;100.00;112049.66;6274514;22;20173;-77
2022/01/21 02:09:33;;;;;;;11.52;3.80;;;5.30;64.70;;;-142.21;100.00;112049.66;6275907;22;20184;-77
2022/01/21 02:12:01;;;;;;;6.53;3.40;;;5.20;64.50;;;-142.21;100.00;112049.66;6275520;22;20176;-76
2022/01/21 02:14:32;;;;;;;8.50;3.70;;;5.10;64.20;;;-142.21;100.00;112049.66;6275796;22;20249;-75
2022/01/21 02:22:38;;;;;;;9.80;3.80;;;4.90;65.60;;;-142.21;100.00;112049.66;6274813;22;20187;-76
2022/01/21 02:25:18;;;;;;;6.85;3.58;;;4.90;65.70;;;-142.21;100.00;112049.66;6275809;22;20255;-76
2022/01/21 02:27:48;;;;;;;8.77;3.85;;;5.00;65.90;;;-142.21;100.00;112049.66;6275628;22;20180;-76
2022/01/21 02:30:19;;;;;;;7.38;3.50;;;5.00;66.20;;;-142.21;100.00;112049.66;6275198;22;20231;-77
2022/01/21 02:32:49;;;;;;;8.00;3.50;;;5.00;66.40;;;-142.21;100.00;112049.66;6275922;22;20179;-75
2022/01/21 02:35:18;;;;;;;8.55;4.28;;;5.00;66.50;;;-142.21;100.00;112049.66;6275207;22;20244;-77
2022/01/21 02:37:49;;;;;;;9.70;4.05;;;5.10;66.30;;;-142.21;100.00;112049.66;6275544;22;20230;-77
2022/01/21 02:40:17;;;;;;;8.10;3.65;;;5.10;66.10;;;-142.21;100.00;112049.66;6275580;22;20172;-76
2022/01/21 02:42:46;;;;;;;8.65;3.72;;;5.10;66.30;;;-142.21;100.00;112049.66;6274881;22;20662;-77
2022/01/21 02:45:15;;;;;;;7.45;3.92;;;5.00;66.40;;;-142.21;100.00;112049.66;6275767;22;20480;-77
2022/01/21 02:47:44;;;;;;;7.30;3.83;;;5.00;66.40;;;-142.21;100.00;112049.66;6274672;22;20574;-76
2022/01/21 02:50:12;;;;;;;9.38;3.92;;;5.10;66.20;;;-142.21;100.00;112049.66;6275230;22;20169;-76
2022/01/21 02:52:55;;;;;;;7.50;3.70;;;5.00;65.80;;;-142.21;100.00;112049.66;6274663;22;20252;-76
2022/01/21 02:55:26;;;;;;;7.57;3.70;;;5.00;66.00;;;-142.21;100.00;112049.66;6275375;22;20160;-77
2022/01/21 02:57:53;;;;;;;8.30;3.80;;;4.90;66.20;;;-142.21;100.00;112049.66;6275343;22;20177;-77
2022/01/21 03:00:20;;;;;;;5.15;3.35;;;4.90;66.10;;;-142.21;100.00;112049.66;6275369;22;20199;-76
2022/01/21 03:02:47;;;;;;;7.78;3.38;;;4.80;66.20;;;-142.21;100.00;112049.66;6274439;22;20222;-77
2022/01/21 03:05:16;;;;;;;7.03;3.92;;;4.80;66.40;;;-142.21;100.00;112049.66;6275195;22;20192;-75
2022/01/21 03:07:44;;;;;;;7.20;3.22;;;4.70;66.60;;;-142.21;100.00;112049.66;6274797;22;20633;-77
2022/01/21 03:10:12;;;;;;;9.07;4.22;;;4.70;66.90;;;-142.21;100.00;112049.66;6275567;22;20230;-76
2022/01/21 03:12:42;;;;;;;6.07;3.30;;;4.70;66.90;;;-142.21;100.00;112049.66;6275466;22;20275;-75
2022/01/21 03:15:09;;;;;;;6.35;3.67;;;4.80;66.80;;;-142.21;100.00;112049.66;6275277;22;20678;-76
2022/01/21 03:17:37;;;;;;;8.63;4.18;;;4.80;66.80;;;-142.21;100.00;112049.66;6274953;22;20283;-75
2022/01/21 03:20:06;;;;;;;9.35;4.25;;;4.80;66.80;;;-142.21;100.00;112049.66;6274748;22;20251;-77
2022/01/21 03:22:34;;;;;;;8.20;3.63;;;4.80;66.90;;;-142.21;100.00;112049.66;6276279;22;20225;-76
2022/01/21 03:25:01;;;;;;;8.50;3.40;;;4.80;66.80;;;-142.21;100.00;112049.66;6275913;22;20180;-78
2022/01/21 03:27:28;;;;;;;8.10;3.42;;;4.70;66.90;;;-142.21;100.00;112049.66;6301404;22;20161;-77
2022/01/21 03:29:58;;;;;;;6.13;3.55;;;4.70;67.30;;;-142.21;100.00;112049.66;6303382;22;20163;-77
2022/01/21 03:32:25;;;;;;;8.65;3.83;;;4.50;67.10;;;-142.21;100.00;112049.66;6278356;22;20176;-75
2022/01/21 03:34:53;;;;;;;8.80;4.03;;;4.60;67.40;;;-142.21;100.00;112049.66;6275090;22;20181;-75
2022/01/21 03:37:20;;;;;;;10.20;3.90;;;4.50;67.80;;;-142.21;100.00;112049.66;6274780;22;20181;-76
2022/01/21 03:39:47;;;;;;;8.82;3.78;;;4.60;67.70;;;-142.21;100.00;112049.66;6274946;22;20180;-76
2022/01/21 03:42:15;;;;;;;9.00;4.00;;;4.50;68.30;;;-142.21;100.00;112049.66;6274157;22;20196;-75
2022/01/21 03:44:42;;;;;;;7.28;3.58;;;4.60;67.40;;;-142.21;100.00;112049.66;6274924;22;20196;-76
2022/01/21 03:47:11;;;;;;;14.13;4.13;;;4.60;67.20;;;-142.21;100.00;112049.66;6273648;22;20220;-74
2022/01/21 03:49:40;;;;;;;7.18;3.50;;;4.60;67.10;;;-142.21;100.00;112049.66;6274608;22;20177;-76
2022/01/21 03:52:09;;;;;;;10.65;4.45;;;4.60;67.00;;;-142.21;100.00;112049.66;6275446;22;20176;-76
2022/01/21 03:54:37;;;;;;;9.18;3.50;;;4.60;67.00;;;-142.21;100.00;112049.66;6275159;22;20176;-76
2022/01/21 03:57:05;;;;;;;6.90;3.30;;;4.60;66.90;;;-142.21;100.00;112049.66;6274761;22;20199;-76
2022/01/21 03:59:32;;;;;;;9.63;4.30;;;4.50;66.80;;;-142.21;100.00;112049.66;6274371;22;20539;-76
2022/01/21 04:02:00;;;;;;;7.25;3.67;;;4.50;66.70;;;-142.21;100.00;112049.66;6274104;22;20292;-76
2022/01/21 04:04:29;;;;;;;8.85;3.90;;;4.50;66.90;;;-142.21;100.00;112049.66;6273902;22;20234;-75
2022/01/21 04:06:56;;;;;;;8.05;4.07;;;4.50;66.90;;;-142.21;100.00;112049.66;6274898;22;20176;-75
2022/01/21 04:09:24;;;;;;;6.60;3.33;;;4.40;66.90;;;-142.21;100.00;112049.66;6276291;22;20199;-76
2022/01/21 04:11:52;;;;;;;9.15;3.78;;;4.50;66.90;;;-142.21;100.00;112049.66;6277053;22;20161;-75
2022/01/21 04:14:19;;;;;;;5.43;3.60;;;4.50;66.90;;;-142.21;100.00;112049.66;6276840;22;20586;-75
2022/01/21 04:16:46;;;;;;;7.00;3.72;;;4.60;67.30;;;-142.21;100.00;112049.66;6275237;22;20215;-75
2022/01/21 04:19:13;;;;;;;8.10;3.75;;;4.60;66.20;;;-142.21;100.00;112049.66;6276770;22;20208;-75
2022/01/21 04:21:42;;;;;;;7.03;3.72;;;4.60;65.90;;;-142.21;100.00;112049.66;6275844;22;20193;-75
2022/01/21 04:24:09;;;;;;;8.52;3.70;;;4.60;66.30;;;-142.21;100.00;112049.66;6277046;22;20639;-75
2022/01/21 04:26:37;;;;;;;7.32;4.47;;;4.60;66.40;;;-142.21;100.00;112049.66;6276142;22;20211;-75
2022/01/21 04:29:04;;;;;;;8.15;3.78;;;4.60;66.40;;;-142.21;100.00;112049.66;6276813;22;20172;-75
2022/01/21 04:31:31;;;;;;;9.65;4.40;;;4.60;66.70;;;-142.21;100.00;112049.66;6275468;22;20247;-75
2022/01/21 04:33:58;;;;;;;9.48;4.20;;;4.60;66.90;;;-142.21;100.00;112049.66;6275972;22;20176;-75
2022/01/21 04:36:25;;;;;;;9.32;4.50;;;4.60;67.60;;;-142.21;100.00;112049.66;6277134;22;20243;-74
2022/01/21 04:38:57;;;;;;;12.23;4.30;;;4.50;66.80;;;-142.21;100.00;112049.66;6276164;22;20219;-76
2022/01/21 04:41:42;;;;;;;8.80;3.72;;;4.40;67.20;;;-142.21;100.00;112049.66;6276801;22;20254;-74
2022/01/21 04:49:38;;;;;;;9.35;4.13;;;4.30;67.30;;;-142.21;100.00;112049.66;6276982;22;20163;-75
2022/01/21 04:52:06;;;;;;;7.95;3.88;;;4.20;68.00;;;-142.21;100.00;112049.66;6276414;22;20693;-76
2022/01/21 04:54:37;;;;;;;7.80;3.67;;;4.10;68.50;;;-142.21;100.00;112049.66;6276766;22;20230;-76
2022/01/21 04:57:06;;;;;;;7.85;4.88;;;4.00;68.50;;;-142.21;100.00;112049.66;6276327;22;20172;-75
2022/01/21 04:59:36;;;;;;;6.78;4.10;;;4.00;68.80;;;-142.21;100.00;112049.66;6276490;22;20180;-75
2022/01/21 05:02:07;;;;;;;8.60;3.92;;;4.00;68.40;;;-142.21;100.00;112049.66;6275623;22;20200;-76
2022/01/21 05:04:36;;;;;;;9.73;4.60;;;4.00;68.40;;;-142.21;100.00;112049.66;6276788;22;20172;-75
2022/01/21 05:07:06;;;;;;;13.10;4.45;;;4.00;68.30;;;-142.21;100.00;112049.66;6275539;22;20227;-76
2022/01/21 05:09:35;;;;;;;8.63;4.18;;;3.90;69.10;;;-142.21;100.00;112049.66;6276707;22;20617;-76
2022/01/21 05:12:08;;;;;;;8.32;3.70;;;3.90;68.60;;;-142.21;100.00;112049.66;6248497;22;20173;-76
2022/01/21 05:14:49;;;;;;;8.50;4.00;;;4.00;68.20;;;-142.21;100.00;112049.66;6276012;22;20153;-76
2022/01/21 05:17:17;;;;;;;10.63;4.18;;;4.00;67.90;;;-142.21;100.00;112049.66;6275076;22;20176;-76
2022/01/21 05:19:45;;;;;;;9.57;4.68;;;4.00;67.80;;;-142.21;100.00;112049.66;6275593;22;20238;-75
2022/01/21 05:22:12;;;;;;;11.20;4.70;;;4.10;68.10;;;-142.21;100.00;112049.66;6275510;22;20196;-76
2022/01/21 05:24:41;;;;;;;10.30;4.72;;;4.10;68.30;;;-142.21;100.00;112049.66;6276197;22;20199;-74
2022/01/21 05:27:11;;;;;;;8.02;4.63;;;4.10;68.30;;;-142.21;100.00;112049.66;6275636;22;20172;-75
2022/01/21 05:29:38;;;;;;;11.50;5.15;;;4.10;68.00;;;-142.21;100.00;112049.66;6275594;22;20223;-79
2022/01/21 05:32:07;;;;;;;11.35;5.20;;;4.20;68.10;;;-142.21;100.00;112049.66;6275959;22;20776;-80
2022/01/21 05:34:35;;;;;;;10.05;5.30;;;4.10;68.00;;;-142.21;100.00;112049.66;6275816;22;20259;-76
2022/01/21 05:37:03;;;;;;;12.07;4.82;;;4.10;68.00;;;-142.21;100.00;112049.66;6275892;22;20509;-74
2022/01/21 05:39:30;;;;;;;9.40;4.93;;;4.10;68.50;;;-142.21;100.00;112049.66;6275121;22;20255;-76
2022/01/21 05:42:00;;;;;;;10.05;4.80;;;4.10;68.20;;;-142.21;100.00;112049.66;6275247;22;20196;-75
2022/01/21 05:47:12;;;;;;;9.35;4.40;;;4.10;68.60;;;-142.21;100.00;112049.66;6275948;22;20208;-76
2022/01/21 05:49:40;;;;;;;8.77;5.15;;;4.00;68.80;;;-142.21;100.00;112049.66;6275004;22;20196;-75
2022/01/21 05:52:15;;;;;;;11.15;4.90;;;3.90;68.80;;;-142.21;100.00;112049.66;6276050;22;20758;-75
2022/01/21 05:54:44;;;;;;;12.38;5.65;;;3.90;69.30;;;-142.21;100.00;112049.66;6275389;22;20160;-75
2022/01/21 05:57:15;;;;;;;12.48;4.70;;;3.80;69.00;;;-142.21;100.00;112049.66;6275857;22;20259;-75
2022/01/21 05:59:45;;;;;;;10.20;4.72;;;3.60;69.30;;;-142.21;100.00;112049.66;6275336;22;20161;-75
2022/01/21 06:02:13;;;;;;;8.02;4.63;;;3.60;69.80;;;-142.21;100.00;112049.66;6272172;22;20246;-74
2022/01/21 06:04:46;;;;;;;10.00;4.75;;;3.60;69.50;;;-142.21;100.00;112049.66;6275693;22;20173;-81
2022/01/21 06:07:14;;;;;;;12.30;5.00;;;3.70;69.40;;;-142.21;100.00;112049.66;6275972;22;20530;-81
2022/01/21 06:09:43;;;;;;;11.68;4.85;;;3.80;69.20;;;-142.21;100.00;112049.66;6275263;22;20556;-76
2022/01/21 06:12:12;;;;;;;9.95;4.35;;;3.80;68.80;;;-142.21;100.00;112049.66;6274487;22;20196;-76
2022/01/21 06:14:40;;;;;;;11.80;4.78;;;3.90;68.60;;;-142.21;100.00;112049.66;6275410;22;20290;-76
2022/01/21 06:17:07;;;;;;;7.68;5.03;;;3.90;68.60;;;-142.21;100.00;112049.66;6274988;22;20173;-75
2022/01/21 06:19:34;;;;;;;7.18;4.63;;;4.00;68.50;;;-142.21;100.00;112049.66;6275496;22;20251;-75
2022/01/21 06:22:02;;;;;;;10.75;5.35;;;4.10;68.10;;;-142.21;100.00;112049.66;6274846;22;20196;-74
2022/01/21 06:24:29;;;;;;;9.70;4.88;;;4.10;68.50;;;-142.21;100.00;112049.66;6275289;22;20230;-75
2022/01/21 06:27:00;;;;;;;14.07;5.43;;;4.30;68.70;;;-142.21;100.00;112049.66;6275881;22;20180;-76
2022/01/21 06:29:29;;;;;;;7.30;4.70;;;4.20;68.60;;;-142.21;100.00;112049.66;6275495;22;20196;-75
2022/01/21 06:31:57;;;;;;;9.38;5.05;;;4.20;68.70;;;-142.21;100.00;112049.66;6275570;22;20176;-75
2022/01/21 06:34:24;;;;;;;8.27;4.45;;;4.30;68.60;;;-142.21;100.00;112049.66;6274707;22;20207;-75
2022/01/21 06:36:51;;;;;;;8.63;4.75;;;4.30;68.50;;;-142.21;100.00;112049.66;6275131;22;20511;-75
2022/01/21 06:39:19;;;;;;;10.77;4.60;;;4.40;68.50;;;-142.21;100.00;112049.66;6274100;22;20609;-75
2022/01/21 06:41:47;;;;;;;13.02;5.18;;;4.30;68.50;;;-142.21;100.00;112049.66;6275437;22;20246;-75
2022/01/21 06:44:14;;;;;;;11.07;5.15;;;4.30;68.50;;;-142.21;100.00;112049.66;6275260;22;20169;-77
2022/01/21 06:46:43;;;;;;;12.68;4.90;;;4.40;68.70;;;-142.21;100.00;112049.66;6274771;22;20199;-76
2022/01/21 06:49:11;;;;;;;14.93;5.88;;;4.30;68.40;;;-142.21;100.00;112049.66;6275289;22;20172;-76
2022/01/21 06:51:38;;;;;;;7.55;4.78;;;4.40;68.30;;;-142.21;100.00;112049.66;6275110;22;21160;-80
2022/01/21 06:54:05;;;;;;;12.57;5.90;;;4.40;68.30;;;-142.21;100.00;112049.66;6275533;22;20177;-78
2022/01/21 06:56:32;;;;;;;8.02;5.40;;;4.50;68.50;;;-142.21;100.00;112049.66;6274892;22;20211;-75
2022/01/21 06:59:01;;;;;;;11.10;6.10;;;4.50;68.50;;;-142.21;100.00;112049.66;6275096;22;20491;-81
2022/01/21 07:01:28;;;;;;;11.27;6.40;;;4.50;68.50;;;-142.21;100.00;112049.66;6276411;22;20184;-75
2022/01/21 07:03:57;;;;;;;12.48;6.28;;;4.50;68.50;;;-142.21;100.00;112049.66;6278429;22;20552;-76
2022/01/21 07:06:24;;;;;;;14.32;6.88;;;4.50;68.40;;;-142.21;100.00;112049.66;6277510;22;20565;-75
2022/01/21 07:09:02;;;;;;;12.93;6.63;;;4.60;68.40;;;-142.21;100.00;112049.66;6277555;22;20226;-75
2022/01/21 07:11:29;;;;;;;13.48;6.70;;;4.60;68.50;;;-142.21;100.00;112049.66;6277507;22;20165;-77
2022/01/21 07:13:57;;;;;;;15.10;8.00;;;4.50;68.50;;;-142.21;100.00;112049.66;6276597;22;20526;-77
2022/01/21 07:16:24;;;;;;;11.93;7.10;;;4.50;68.70;;;-142.21;100.00;112049.66;6276532;22;20218;-78
2022/01/21 07:18:51;;;;;;;13.13;6.40;;;4.50;68.50;;;-142.21;100.00;112049.66;6275514;22;20173;-75
2022/01/21 07:21:20;;;;;;;14.82;6.20;;;4.50;68.60;;;-142.21;100.00;112049.66;6276080;22;20173;-74
2022/01/21 07:23:47;;;;;;;8.18;5.35;;;4.60;68.80;;;-142.21;100.00;112049.66;6278176;22;20581;-75
2022/01/21 07:26:15;;;;;;;9.57;4.82;;;4.60;68.50;;;-142.21;100.00;112049.66;6277538;22;20180;-75
2022/01/21 07:28:42;;;;;;;13.10;6.28;;;4.60;68.30;;;-142.21;100.00;112049.66;6276563;22;20556;-77
2022/01/21 07:31:11;;;;;;;12.32;5.80;;;4.70;68.20;;;-142.21;100.00;112049.66;6277271;22;20206;-77
2022/01/21 07:33:38;;;;;;;15.43;6.65;;;4.70;68.60;;;-142.21;100.00;112049.66;6276832;22;20234;-77
2022/01/21 07:36:07;;;;;;;11.35;6.68;;;4.80;68.60;;;-142.21;100.00;112049.66;6276095;22;20180;-76
2022/01/21 07:38:38;;;;;;;9.85;5.82;;;4.80;68.60;;;-142.21;100.00;112049.66;6276073;22;20184;-77
2022/01/21 07:41:06;;;;;;;11.32;5.75;;;4.90;68.40;;;-142.21;100.00;112049.66;6275513;22;20499;-77
2022/01/21 07:43:33;;;;;;;9.73;6.43;;;4.90;68.30;;;-142.21;100.00;112049.66;6277468;22;20196;-77
2022/01/21 07:46:00;;;;;;;13.48;6.75;;;4.80;68.50;;;-142.21;100.00;112049.66;6277690;22;20173;-77
2022/01/21 07:48:28;;;;;;;10.13;5.63;;;4.90;68.90;;;-142.21;100.00;112049.66;6279504;22;20188;-76
2022/01/21 07:50:58;;;;;;;10.88;5.88;;;4.90;68.90;;;-142.21;100.00;112049.66;6278665;22;20222;-77
2022/01/21 07:53:25;;;;;;;13.80;5.47;;;5.00;69.10;;;-142.21;100.00;112049.66;6278377;22;20176;-79
2022/01/21 07:55:54;;;;;;;9.27;4.85;;;5.10;69.10;;;-142.21;100.00;112049.66;6278569;22;20222;-76
2022/01/21 07:58:22;;;;;;;14.30;5.63;;;5.00;68.90;;;-142.21;100.00;112049.66;6278707;22;20173;-77
2022/01/21 08:00:50;;;;;;;8.85;5.10;;;5.10;68.70;;;-142.21;100.00;112049.66;6280087;22;20698;-80
2022/01/21 08:03:17;;;;;;;9.82;5.70;;;5.10;68.50;;;-142.21;100.00;112049.66;6278823;22;20197;-77
2022/01/21 08:05:46;;;;;;;9.27;5.47;;;5.20;68.50;;;-142.21;100.00;112049.66;6297493;22;20177;-77
2022/01/21 08:08:13;;;;;;;10.68;6.15;;;5.30;68.60;;;-142.21;100.00;112049.66;6304955;22;20167;-77
2022/01/21 08:10:41;;;;;;;11.18;5.38;;;5.30;68.30;;;-142.21;100.00;112049.66;6289307;22;20505;-76
2022/01/21 08:13:09;;;;;;;15.48;6.10;;;5.30;67.90;;;-142.21;100.00;112049.66;6277461;22;20644;-78
2022/01/21 08:15:37;;;;;;;10.10;5.78;;;5.40;67.70;;;-142.21;100.00;112049.66;6277725;22;20542;-76
2022/01/21 08:18:05;;;;;;;17.90;9.43;;;5.30;67.80;;;-142.21;100.00;112049.66;6277331;22;20177;-76
2022/01/21 08:20:39;;;;;;;13.52;8.55;;;5.20;68.20;;;-142.21;100.00;112049.66;6277050;22;20204;-78
2022/01/21 08:23:06;;;;;;;18.25;9.38;;;5.20;68.50;;;-142.21;100.00;112049.66;6277483;22;20262;-76
2022/01/21 08:25:33;;;;;;;12.80;6.90;;;5.30;68.40;;;-142.21;100.00;112049.66;6276741;22;20173;-76
2022/01/21 08:28:01;;;;;;;11.88;5.97;;;5.20;68.20;;;-142.21;100.00;112049.66;6277208;22;20181;-77
2022/01/21 08:30:30;;;;;;;11.20;5.25;;;5.30;68.40;;;-142.21;100.00;112049.66;6276849;22;20552;-76
2022/01/21 08:32:57;;;;;;;9.13;5.18;;;5.40;68.00;;;-142.21;100.00;112049.66;6277150;22;20172;-76
2022/01/21 08:35:28;;;;;;;12.05;7.05;;;5.50;67.70;;;-142.21;100.00;112049.66;6276099;22;20176;-78
2022/01/21 08:37:56;;;;;;;8.30;5.38;;;5.70;67.60;;;-142.21;100.00;112049.66;6276860;22;20176;-77
2022/01/21 08:40:25;;;;;;;10.77;6.07;;;5.90;67.70;;;-142.21;100.00;112049.66;6276985;22;20173;-76
2022/01/21 08:42:53;;;;;;;8.73;4.68;;;6.10;66.90;;;-142.21;100.00;112049.66;6276723;22;20205;-77
2022/01/21 08:45:22;;;;;;;8.60;5.18;;;6.10;66.60;;;-142.21;100.00;112049.66;6277074;22;20203;-77
2022/01/21 08:47:51;;;;;;;9.18;6.05;;;6.00;66.20;;;-142.21;100.00;112049.66;6276329;22;20262;-75
2022/01/21 08:50:22;;;;;;;7.90;5.03;;;5.90;66.60;;;-142.21;100.00;112049.66;6276211;22;20211;-77
2022/01/21 08:52:54;;;;;;;12.15;4.75;;;6.00;66.90;;;-142.21;100.00;112049.66;6276224;22;20485;-78
2022/01/21 08:55:21;;;;;;;8.45;4.47;;;6.20;66.40;;;-142.21;100.00;112049.66;6276783;22;20482;-78
2022/01/21 08:57:49;;;;;;;8.95;4.57;;;7.00;65.10;;;-142.21;100.00;112049.66;6276054;22;20184;-74
2022/01/21 09:00:22;;;;;;;7.47;4.65;;;7.00;64.20;;;-142.21;100.00;112049.66;6276954;22;20238;-76
2022/01/21 09:02:51;;;;;;;8.27;4.60;;;6.70;64.50;;;-142.21;100.00;112049.66;6276262;22;20243;-77
2022/01/21 09:05:18;;;;;;;9.48;4.78;;;6.40;65.20;;;-142.21;100.00;112049.66;6276448;22;20256;-76
2022/01/21 09:07:46;;;;;;;9.60;5.28;;;6.40;65.50;;;-142.21;100.00;112049.66;6276453;22;20176;-76
2022/01/21 09:10:14;;;;;;;8.38;4.90;;;6.30;66.00;;;-142.21;100.00;112049.66;6276991;22;20177;-76
2022/01/21 09:12:44;;;;;;;9.43;4.60;;;6.30;66.30;;;-142.21;100.00;112049.66;6276980;22;20173;-76
2022/01/21 09:15:12;;;;;;;12.88;5.95;;;6.30;66.10;;;-142.21;100.00;112049.66;6277176;22;20180;-76
2022/01/21 09:17:39;;;;;;;10.27;5.35;;;6.30;66.20;;;-142.21;100.00;112049.66;6276833;22;20173;-76
2022/01/21 09:20:11;;;;;;;11.73;5.05;;;6.30;66.30;;;-142.21;100.00;112049.66;6276048;22;20176;-76
2022/01/21 09:22:38;;;;;;;10.52;5.43;;;6.30;66.00;;;-142.21;100.00;112049.66;6277314;22;20181;-76
2022/01/21 09:25:06;;;;;;;9.82;4.70;;;6.30;66.40;;;-142.21;100.00;112049.66;6277363;22;20180;-76
2022/01/21 09:27:34;;;;;;;8.45;4.72;;;6.40;66.40;;;-142.21;100.00;112049.66;6277687;22;20172;-77
2022/01/21 09:30:01;;;;;;;9.98;4.60;;;6.40;66.20;;;-142.21;100.00;112049.66;6276857;22;20192;-76
2022/01/21 09:32:28;;;;;;;9.57;5.03;;;6.40;66.90;;;-142.21;100.00;112049.66;6276945;22;20239;-77
2022/01/21 09:34:56;;;;;;;12.00;4.72;;;6.40;65.90;;;-142.21;100.00;112049.66;6276852;22;20192;-77
2022/01/21 09:37:24;;;;;;;8.73;4.43;;;6.50;66.50;;;-142.21;100.00;112049.66;6276844;22;20700;-77
2022/01/21 09:39:52;;;;;;;9.52;4.82;;;6.50;66.50;;;-142.21;100.00;112049.66;6276831;22;20227;-77
2022/01/21 09:42:19;;;;;;;14.45;4.95;;;6.50;66.40;;;-142.21;100.00;112049.66;6276562;22;20197;-76
2022/01/21 09:44:50;;;;;;;11.18;5.25;;;6.60;66.00;;;-142.21;100.00;112049.66;6276549;22;20196;-77
2022/01/21 09:47:20;;;;;;;10.55;4.75;;;6.60;66.00;;;-142.21;100.00;112049.66;6275743;22;20212;-78
2022/01/21 09:49:47;;;;;;;8.40;4.35;;;6.60;66.00;;;-142.21;100.00;112049.66;6276811;22;20559;-76
2022/01/21 09:52:19;;;;;;;7.82;5.00;;;6.50;65.70;;;-142.21;100.00;112049.66;6276725;22;20625;-75
2022/01/21 09:54:48;;;;;;;13.80;5.30;;;6.60;65.80;;;-142.21;100.00;112049.66;6277561;22;20165;-76
2022/01/21 09:57:21;;;;;;;8.68;4.93;;;6.60;66.40;;;-142.21;100.00;112049.66;6277074;22;20184;-77
2022/01/21 09:59:50;;;;;;;11.10;5.07;;;6.70;65.50;;;-142.21;100.00;112049.66;6277007;22;20180;-76
2022/01/21 10:02:20;;;;;;;12.70;5.22;;;6.70;65.00;;;-142.21;100.00;112049.66;6276647;22;20659;-76
2022/01/21 10:04:52;;;;;;;12.73;5.35;;;6.70;65.00;;;-142.21;100.00;112049.66;6276434;22;20203;-76
2022/01/21 10:07:22;;;;;;;9.07;5.22;;;6.70;65.00;;;-142.21;100.00;112049.66;6276385;22;20483;-76
2022/01/21 10:09:54;;;;;;;15.57;5.88;;;6.70;64.90;;;-142.21;100.00;112049.66;6276635;22;20594;-77
2022/01/21 10:12:24;;;;;;;9.60;5.38;;;6.60;64.90;;;-142.21;100.00;112049.66;6276948;22;20157;-77
2022/01/21 10:14:51;;;;;;;9.07;4.80;;;6.70;65.20;;;-142.21;100.00;112049.66;6277094;22;20165;-77
2022/01/21 10:17:19;;;;;;;9.10;5.07;;;6.70;64.90;;;-142.21;100.00;112049.66;6276373;22;20396;-76
2022/01/21 10:19:48;;;;;;;10.07;5.28;;;6.80;65.20;;;-142.21;100.00;112049.66;6276238;22;20407;-76
2022/01/21 10:22:19;;;;;;;13.07;5.53;;;6.90;65.20;;;-142.21;100.00;112049.66;6276448;22;20268;-76
2022/01/21 10:24:58;;;;;;;9.68;5.10;;;7.00;65.10;;;-142.21;100.00;112049.66;6276731;22;20479;-76
2022/01/21 10:27:28;;;;;;;8.13;4.90;;;7.10;64.20;;;-142.21;100.00;112049.66;6277017;22;20586;-76
2022/01/21 10:29:56;;;;;;;9.57;5.22;;;7.20;64.00;;;-142.21;100.00;112049.66;6276770;22;20422;-76
2022/01/21 10:32:38;;;;;;;8.87;5.20;;;7.30;63.90;;;-142.21;100.00;112049.66;6276253;22;20173;-76
2022/01/21 10:35:21;;;;;;;8.20;4.87;;;7.50;63.00;;;-142.21;100.00;112049.66;6276568;22;20457;-77
2022/01/21 10:37:49;;;;;;;8.43;4.80;;;7.60;63.20;;;-142.21;100.00;112049.66;6276439;22;20464;-77
2022/01/21 10:40:21;;;;;;;11.43;4.80;;;7.60;62.50;;;-142.21;100.00;112049.66;6276483;22;20419;-77
2022/01/21 10:42:50;;;;;;;8.80;4.55;;;7.70;62.10;;;-142.21;100.00;112049.66;6250104;22;20494;-76
2022/01/21 10:45:17;;;;;;;10.80;4.87;;;7.80;62.00;;;-142.21;100.00;112049.66;6275834;22;20176;-77